Time;durP1;ratioP1;P1;durP2;ratioP2;P2;SDS_P1;SDS_P2;PMS_P1;PMS_P2;Temp;Humidity;BMP_temperature;BMP_pressure;BME280_temperature;BME280_humidity;BME280_pressure;Samples;Min_cycle;Max_cycle;Signal;HPM_P1;HPM_P2
2023/01/15 00:01:30;;;;;;;2.22;0.20;;;;;;;7.20;100.00;98952.88;4937931;28;20050;-77
2023/01/15 00:03:59;;;;;;;1.90;0.17;;;;;;;7.05;100.00;98953.19;4922488;29;20050;-80
2023/01/15 00:06:27;;;;;;;1.17;0.20;;;;;;;6.97;100.00;98975.94;4930241;29;20058;-79
2023/01/15 00:08:54;;;;;;;2.00;0.35;;;;;;;6.88;100.00;98982.19;4922033;29;20137;-80
2023/01/15 00:11:21;;;;;;;0.35;0.25;;;;;;;6.80;100.00;98984.94;4929341;29;20055;-81
2023/01/15 00:13:49;;;;;;;1.42;0.20;;;;;;;6.74;100.00;98980.72;4947235;28;20047;-79
2023/01/15 00:16:19;;;;;;;0.65;0.30;;;;;;;6.67;100.00;98992.13;4946802;28;20371;-78
2023/01/15 00:18:55;;;;;;;0.75;0.35;;;;;;;6.63;100.00;98977.47;4947853;28;20043;-79
2023/01/15 00:21:22;;;;;;;0.43;0.35;;;;;;;6.58;100.00;98989.72;4926310;29;20108;-77
2023/01/15 00:29:19;;;;;;;0.98;0.35;;;;;;;6.29;100.00;98981.56;4919379;29;20055;-82
2023/01/15 00:32:08;;;;;;;1.00;0.60;;;;;;;6.18;100.00;98974.84;4919632;29;20054;-80
2023/01/15 00:34:35;;;;;;;2.55;1.30;;;;;;;6.06;100.00;98997.59;4920263;29;21252;-78
2023/01/15 00:37:03;;;;;;;0.73;0.55;;;;;;;5.99;100.00;98988.19;4903630;29;20438;-79
2023/01/15 00:39:29;;;;;;;1.38;0.82;;;;;;;5.91;100.00;98996.06;4915293;29;20115;-77
2023/01/15 00:41:56;;;;;;;0.82;0.35;;;;;;;5.83;100.00;98990.16;4908302;29;20062;-77
2023/01/15 00:44:23;;;;;;;0.47;0.20;;;;;;;5.78;100.00;99004.94;4904493;29;20070;-80
2023/01/15 00:46:49;;;;;;;2.60;1.15;;;;;;;5.72;100.00;99016.28;4903941;29;20039;-79
2023/01/15 00:49:16;;;;;;;4.32;0.30;;;;;;;5.68;100.00;98998.19;4916973;29;20058;-77
2023/01/15 00:51:42;;;;;;;1.05;0.40;;;;;;;5.62;100.00;99019.91;4902471;29;20522;-77
2023/01/15 00:54:09;;;;;;;2.75;0.22;;;;;;;5.55;100.00;99021.72;4913939;28;21135;-76
2023/01/15 00:56:36;;;;;;;1.05;0.28;;;;;;;5.52;100.00;99026.13;4925995;29;20043;-79
2023/01/15 00:59:04;;;;;;;1.63;0.20;;;;;;;5.44;100.00;99032.25;4924212;28;20055;-80
2023/01/15 01:01:31;;;;;;;1.40;0.40;;;;;;;5.36;100.00;99036.72;4924766;28;20035;-77
2023/01/15 01:03:58;;;;;;;0.50;0.20;;;;;;;5.32;100.00;99042.81;4927010;28;20058;-77
2023/01/15 01:06:24;;;;;;;0.45;0.20;;;;;;;5.29;100.00;99042.84;4924087;29;20121;-77
2023/01/15 01:08:51;;;;;;;7.00;0.60;;;;;;;5.23;100.00;99038.63;4924735;28;20053;-78
2023/01/15 01:11:22;;;;;;;4.47;0.20;;;;;;;5.23;100.00;99038.63;4925786;28;20035;-82
2023/01/15 01:13:49;;;;;;;2.95;0.10;;;;;;;5.21;100.00;99045.53;4935170;28;20062;-79
2023/01/15 01:16:34;;;;;;;2.58;0.30;;;;;;;5.19;100.00;99052.50;4926397;28;20031;-79
2023/01/15 01:19:04;;;;;;;1.17;0.20;;;;;;;5.19;100.00;99047.31;4926957;28;20043;-80
2023/01/15 01:21:31;;;;;;;0.68;0.20;;;;;;;5.21;100.00;99050.72;4918167;29;20605;-79
2023/01/15 01:23:59;;;;;;;0.25;0.10;;;;;;;5.16;100.00;99056.88;4934460;29;20043;-81
2023/01/15 01:26:28;;;;;;;0.65;0.17;;;;;;;5.12;100.00;99048.25;4947264;28;20598;-79
2023/01/15 01:28:55;;;;;;;1.55;0.30;;;;;;;5.14;100.00;99049.09;4925266;28;20054;-77
2023/01/15 01:31:22;;;;;;;0.43;0.22;;;;;;;5.14;100.00;99042.16;4957322;28;20039;-78
2023/01/15 01:33:50;;;;;;;0.20;0.20;;;;;;;5.16;100.00;99067.25;4952847;28;20047;-76
2023/01/15 01:36:17;;;;;;;0.32;0.32;;;;;;;5.11;100.00;99072.47;4918590;28;20054;-78
2023/01/15 01:38:49;;;;;;;1.55;0.22;;;;;;;5.02;100.00;99093.34;4941326;28;20043;-77
2023/01/15 01:41:17;;;;;;;1.45;1.17;;;;;;;5.04;100.00;99094.19;4946840;28;20035;-77
2023/01/15 01:44:02;;;;;;;1.00;0.30;;;;;;;5.03;100.00;99098.53;4930341;29;20039;-77
2023/01/15 01:46:33;;;;;;;3.08;0.30;;;;;;;4.96;100.00;99095.13;4942141;28;20134;-77
2023/01/15 01:49:12;;;;;;;0.80;0.30;;;;;;;4.84;100.00;99104.75;4926517;28;20051;-80
2023/01/15 01:51:51;;;;;;;0.63;0.20;;;;;;;4.81;100.00;99100.50;4935992;28;20047;-81
2023/01/15 01:54:21;;;;;;;2.40;1.00;;;;;;;4.77;100.00;99089.28;4940590;28;20047;-77
2023/01/15 01:56:49;;;;;;;3.00;0.28;;;;;;;4.75;100.00;99095.38;4924660;29;20059;-77
2023/01/15 01:59:20;;;;;;;0.20;0.17;;;;;;;4.68;100.00;99079.03;4925609;28;20054;-78
2023/01/15 02:01:48;;;;;;;0.73;0.20;;;;;;;4.76;100.00;99097.09;4933832;28;20443;-79
2023/01/15 02:04:17;;;;;;;0.63;0.52;;;;;;;4.69;100.00;99090.25;4921070;28;20139;-77
2023/01/15 02:06:44;;;;;;;0.70;0.20;;;;;;;4.64;100.00;99098.94;4938126;28;20051;-77
2023/01/15 02:09:11;;;;;;;0.80;0.20;;;;;;;4.60;100.00;99088.59;4923873;28;20086;-77
2023/01/15 02:11:37;;;;;;;0.20;0.20;;;;;;;4.59;100.00;99090.34;4928315;29;20406;-77
2023/01/15 02:14:50;;;;;;;0.22;0.10;;;;;;;4.64;100.00;99100.63;4931082;28;20040;-77
2023/01/15 02:17:41;;;;;;;3.55;0.20;;;;;;;4.59;100.00;99084.31;4905977;29;20686;-79
2023/01/15 02:20:31;;;;;;;1.45;0.10;;;;;;;4.61;100.00;99101.53;4932012;28;20058;-78
2023/01/15 02:23:33;;;;;;;1.08;0.20;;;;;;;4.60;100.00;99101.53;4944370;28;20062;-78
2023/01/15 02:26:42;;;;;;;2.35;0.30;;;;;;;4.63;100.00;99104.97;4928534;28;20705;-77
2023/01/15 02:29:18;;;;;;;0.30;0.20;;;;;;;4.62;100.00;99098.06;4940504;28;20051;-80
2023/01/15 02:31:51;;;;;;;0.73;0.10;;;;;;;4.62;100.00;99099.81;4948289;28;20035;-78
2023/01/15 02:34:31;;;;;;;1.13;0.10;;;;;;;4.61;100.00;99082.53;4941861;28;20035;-77
2023/01/15 02:37:06;;;;;;;0.75;0.10;;;;;;;4.63;100.00;99096.34;4949090;28;20031;-76
2023/01/15 02:39:38;;;;;;;0.10;0.10;;;;;;;4.63;100.00;99099.78;4934858;29;20054;-77
2023/01/15 02:42:07;;;;;;;0.73;0.20;;;;;;;4.67;100.00;99104.94;4932715;28;20051;-78
2023/01/15 02:44:40;;;;;;;1.50;0.10;;;;;;;4.66;100.00;99106.69;4948753;28;20078;-79
2023/01/15 02:47:08;;;;;;;0.63;0.20;;;;;;;4.65;100.00;99089.41;4945997;28;20066;-76
2023/01/15 02:49:37;;;;;;;0.00;0.00;;;;;;;4.62;100.00;99089.44;4929637;28;20074;-79
2023/01/15 02:52:10;;;;;;;1.45;0.10;;;;;;;4.68;97.22;99085.94;4946438;28;20850;-77
2023/01/15 02:54:45;;;;;;;0.28;0.10;;;;;;;4.71;94.55;99080.72;4931053;29;20051;-76
2023/01/15 02:57:14;;;;;;;0.25;0.00;;;;;;;4.74;96.47;99083.28;4924079;28;20055;-77
2023/01/15 02:59:47;;;;;;;1.17;0.10;;;;;;;4.77;96.00;99062.50;4931809;29;20054;-80
2023/01/15 03:02:24;;;;;;;0.00;0.00;;;;;;;4.72;96.09;99069.47;4938441;28;20055;-80
2023/01/15 03:05:03;;;;;;;0.00;0.00;;;;;;;4.67;96.83;99068.66;4948162;28;20051;-77
2023/01/15 03:07:48;;;;;;;0.00;0.00;;;;;;;4.61;98.38;99065.25;4916193;29;20113;-77
2023/01/15 03:10:15;;;;;;;4.25;0.10;;;;;;;4.63;97.65;99060.91;4949161;28;20541;-78
2023/01/15 03:13:05;;;;;;;0.28;0.03;;;;;;;4.59;97.89;99059.25;4933975;28;20102;-77
2023/01/15 03:18:37;;;;;;;0.28;0.20;;;;;;;4.71;97.04;99071.22;4945224;28;20154;-78
2023/01/15 03:21:08;;;;;;;1.95;0.20;;;;;;;4.70;98.32;99074.66;4944799;28;20042;-78
2023/01/15 03:23:43;;;;;;;0.95;0.30;;;;;;;4.75;98.36;99052.16;4936637;28;20051;-80
2023/01/15 03:26:10;;;;;;;0.35;0.10;;;;;;;4.74;98.63;99073.75;4927751;28;20043;-78
2023/01/15 03:28:39;;;;;;;0.93;0.30;;;;;;;4.71;99.59;99066.03;4910376;28;20628;-80
2023/01/15 03:31:06;;;;;;;0.30;0.30;;;;;;;4.73;100.00;99056.50;4929284;28;20058;-79
2023/01/15 03:33:35;;;;;;;0.30;0.30;;;;;;;4.70;100.00;99066.88;4926946;28;20810;-81
2023/01/15 03:36:02;;;;;;;0.38;0.20;;;;;;;4.73;100.00;99053.91;4946422;28;20382;-77
2023/01/15 03:38:34;;;;;;;1.60;0.60;;;;;;;4.74;100.00;99065.13;4928546;28;20039;-77
2023/01/15 03:41:14;;;;;;;0.38;0.20;;;;;;;4.79;100.00;99060.75;4911571;28;20145;-81
2023/01/15 03:44:07;;;;;;;1.00;0.20;;;;;;;4.73;100.00;99056.50;4942744;28;20047;-78
2023/01/15 03:46:54;;;;;;;0.52;0.40;;;;;;;4.70;100.00;99059.13;4941384;28;20070;-79
2023/01/15 03:49:58;;;;;;;3.38;0.30;;;;;;;4.74;100.00;99054.75;4953903;28;20045;-78
2023/01/15 03:53:15;;;;;;;1.85;0.30;;;;;;;4.79;100.00;99043.44;4951684;28;20394;-75
2023/01/15 03:56:11;;;;;;;0.25;0.10;;;;;;;4.76;100.00;99037.47;4930209;29;20043;-79
2023/01/15 03:58:53;;;;;;;0.85;0.50;;;;;;;4.84;100.00;99032.16;4946366;28;20149;-79
2023/01/15 04:01:30;;;;;;;1.95;0.45;;;;;;;4.82;100.00;99029.59;4932776;28;20035;-82
2023/01/15 04:03:58;;;;;;;7.13;0.57;;;;;;;4.88;100.00;99026.09;4945782;28;20050;-76
2023/01/15 04:06:28;;;;;;;1.08;0.32;;;;;;;4.85;100.00;99031.28;4942125;28;20039;-77
2023/01/15 04:08:55;;;;;;;3.22;0.35;;;;;;;4.84;100.00;99030.44;4908917;28;20051;-79
2023/01/15 04:11:24;;;;;;;1.20;0.40;;;;;;;4.86;100.00;99033.03;4939038;28;20039;-79
2023/01/15 04:13:51;;;;;;;2.28;0.43;;;;;;;4.86;100.00;99033.03;4931332;28;20035;-76
2023/01/15 04:16:31;;;;;;;1.02;0.40;;;;;;;4.89;99.94;99012.22;4949735;28;20043;-77
2023/01/15 04:18:58;;;;;;;0.75;0.30;;;;;;;4.93;99.16;99011.34;4947676;28;20133;-76
2023/01/15 04:21:25;;;;;;;1.45;0.28;;;;;;;4.88;99.73;99018.31;4928192;29;20031;-80
2023/01/15 04:23:51;;;;;;;3.08;0.50;;;;;;;4.80;100.00;99008.88;4911365;28;20047;-77
2023/01/15 04:26:18;;;;;;;0.75;0.35;;;;;;;4.82;100.00;99002.81;4927231;28;20046;-81
2023/01/15 04:28:45;;;;;;;0.30;0.30;;;;;;;4.84;100.00;99024.38;4943148;28;20494;-80
2023/01/15 04:31:11;;;;;;;3.80;0.60;;;;;;;4.83;100.00;99023.53;4931074;28;20054;-77
2023/01/15 04:33:39;;;;;;;2.20;0.40;;;;;;;4.91;99.40;99032.06;4942222;28;20097;-80
2023/01/15 04:36:06;;;;;;;1.48;0.52;;;;;;;4.91;99.18;99034.66;4928392;28;20490;-77
2023/01/15 04:38:33;;;;;;;3.92;0.95;;;;;;;4.84;99.91;99025.25;4928643;28;20031;-81
2023/01/15 04:44:06;;;;;;;3.50;0.40;;;;;;;4.80;100.00;99008.03;4930680;28;20047;-79
2023/01/15 04:46:45;;;;;;;1.02;0.60;;;;;;;4.81;100.00;99007.16;4943989;28;20484;-80
2023/01/15 04:49:17;;;;;;;1.80;0.40;;;;;;;4.80;100.00;98992.47;4942528;28;20039;-77
2023/01/15 04:51:44;;;;;;;2.30;0.80;;;;;;;4.76;100.00;99011.53;4945469;28;20421;-80
2023/01/15 04:54:14;;;;;;;3.22;0.47;;;;;;;4.79;100.00;99022.72;4927731;28;20059;-78
2023/01/15 04:56:50;;;;;;;1.27;0.55;;;;;;;4.83;100.00;99025.28;4927064;29;20466;-78
2023/01/15 04:59:27;;;;;;;0.98;0.70;;;;;;;4.79;100.00;99011.50;4942698;28;21583;-79
2023/01/15 05:01:53;;;;;;;1.33;0.38;;;;;;;4.73;100.00;99019.34;4912833;29;20040;-78
2023/01/15 05:04:20;;;;;;;0.85;0.50;;;;;;;4.73;100.00;99032.31;4927203;28;20039;-77
2023/01/15 05:06:46;;;;;;;1.13;0.57;;;;;;;4.73;100.00;99009.84;4929003;29;20143;-77
2023/01/15 05:09:13;;;;;;;0.73;0.50;;;;;;;4.70;100.00;99016.78;4925787;28;20051;-77
2023/01/15 05:11:40;;;;;;;0.32;0.30;;;;;;;4.68;100.00;99021.13;4924512;29;20051;-77
2023/01/15 05:14:07;;;;;;;3.53;0.52;;;;;;;4.68;100.00;99028.91;4941792;28;20039;-77
2023/01/15 05:16:37;;;;;;;3.00;0.32;;;;;;;4.70;100.00;99017.63;4925821;28;20090;-77
2023/01/15 05:19:06;;;;;;;0.73;0.40;;;;;;;4.71;100.00;99013.34;4940364;28;20058;-76
2023/01/15 05:21:37;;;;;;;3.00;1.10;;;;;;;4.73;100.00;99004.66;4925933;29;20043;-76
2023/01/15 05:24:07;;;;;;;6.50;0.73;;;;;;;4.74;100.00;99003.75;4920425;28;20047;-77
2023/01/15 05:26:35;;;;;;;0.50;0.50;;;;;;;4.78;100.00;98995.09;4925907;29;20050;-77
2023/01/15 05:29:02;;;;;;;1.35;0.40;;;;;;;4.78;100.00;99005.47;4940924;28;20046;-76
2023/01/15 05:31:29;;;;;;;3.70;0.50;;;;;;;4.80;100.00;99006.28;4938760;28;20050;-75
2023/01/15 05:33:57;;;;;;;2.45;0.55;;;;;;;4.78;100.00;99012.38;4926881;29;20129;-79
2023/01/15 05:36:28;;;;;;;3.90;0.60;;;;;;;4.81;100.00;99001.97;4936160;28;20043;-78
2023/01/15 05:38:58;;;;;;;1.45;0.60;;;;;;;4.80;100.00;99008.03;4910669;28;20059;-78
2023/01/15 05:44:12;;;;;;;5.53;0.88;;;;;;;4.88;99.40;99011.38;4910463;28;20057;-77
2023/01/15 05:46:41;;;;;;;2.90;0.60;;;;;;;4.88;99.20;99003.59;4924843;29;20043;-80
2023/01/15 05:49:12;;;;;;;2.75;1.55;;;;;;;4.90;99.09;99014.81;4925345;28;20039;-78
2023/01/15 05:51:40;;;;;;;1.90;0.65;;;;;;;4.91;99.01;99006.16;4931287;28;20043;-77
2023/01/15 05:54:11;;;;;;;1.02;0.65;;;;;;;4.87;99.62;99006.22;4929570;28;20078;-76
2023/01/15 05:56:38;;;;;;;3.22;1.30;;;;;;;4.90;99.30;99012.25;4941086;28;20043;-76
2023/01/15 05:59:07;;;;;;;2.83;1.35;;;;;;;4.97;98.66;99013.00;4931151;28;20052;-75
2023/01/15 06:01:33;;;;;;;1.77;0.70;;;;;;;4.97;98.71;99019.03;4933411;29;20306;-77
2023/01/15 06:04:03;;;;;;;2.05;1.10;;;;;;;4.90;99.46;99014.81;4947722;28;20047;-78
2023/01/15 06:06:30;;;;;;;1.00;0.90;;;;;;;4.88;99.23;99023.50;4930670;29;20601;-77
2023/01/15 06:08:57;;;;;;;6.88;1.00;;;;;;;4.94;98.76;99024.28;4915140;28;20125;-77
2023/01/15 06:11:24;;;;;;;4.05;1.38;;;;;;;4.99;98.18;99025.97;4929247;28;20865;-80
2023/01/15 06:13:51;;;;;;;1.23;1.20;;;;;;;5.05;97.36;99025.88;4935640;28;20050;-76
2023/01/15 06:16:18;;;;;;;3.03;0.98;;;;;;;5.03;97.28;99028.50;4934061;28;20055;-78
2023/01/15 06:18:45;;;;;;;2.25;0.98;;;;;;;5.09;96.87;99017.19;4946189;28;20046;-77
2023/01/15 06:21:13;;;;;;;7.68;1.00;;;;;;;5.20;95.52;99035.19;4933511;29;20122;-77
2023/01/15 06:23:40;;;;;;;4.18;1.23;;;;;;;5.12;95.96;99019.72;4928881;29;20430;-77
2023/01/15 06:26:14;;;;;;;4.88;1.05;;;;;;;5.20;94.58;99027.41;4931182;28;20039;-76
2023/01/15 06:28:41;;;;;;;2.35;1.05;;;;;;;5.24;93.93;99037.75;4942210;28;20043;-78
2023/01/15 06:31:10;;;;;;;2.50;0.95;;;;;;;5.16;94.30;99025.75;4929802;28;20046;-77
2023/01/15 06:33:46;;;;;;;5.05;0.75;;;;;;;5.09;94.96;99036.19;4948792;28;20059;-80
2023/01/15 06:36:21;;;;;;;3.78;1.50;;;;;;;4.98;95.75;99035.47;4939848;28;20036;-80
2023/01/15 06:38:48;;;;;;;5.07;1.52;;;;;;;4.99;95.88;99036.31;4946165;28;20500;-78
2023/01/15 06:49:36;;;;;;;6.45;1.08;;;;;;;4.93;96.02;99030.34;4934810;28;20038;-79
2023/01/15 06:52:05;;;;;;;5.82;1.10;;;;;;;4.92;96.33;99028.63;4938560;28;20052;-78
2023/01/15 06:54:32;;;;;;;5.15;1.30;;;;;;;4.90;96.73;99016.53;4937236;28;20040;-79
2023/01/15 06:56:59;;;;;;;4.85;1.42;;;;;;;4.89;96.27;99036.44;4925416;28;20058;-82
2023/01/15 06:59:26;;;;;;;7.38;1.42;;;;;;;4.95;95.74;99031.19;4940324;28;20055;-76
2023/01/15 07:01:52;;;;;;;2.45;0.70;;;;;;;4.94;95.95;99039.84;4934557;28;20047;-78
2023/01/15 07:04:19;;;;;;;3.22;0.80;;;;;;;4.96;95.76;99045.84;4914306;28;21572;-79
2023/01/15 07:06:45;;;;;;;3.35;1.38;;;;;;;4.97;95.53;99033.75;4929624;29;20047;-80
2023/01/15 07:09:13;;;;;;;4.40;1.00;;;;;;;4.95;95.27;99036.38;4929107;28;20039;-76
2023/01/15 07:11:48;;;;;;;3.50;1.20;;;;;;;4.94;95.79;99015.63;4926513;29;20043;-77
2023/01/15 07:14:17;;;;;;;3.42;1.80;;;;;;;4.94;95.66;99029.47;4930564;28;20051;-78
2023/01/15 07:16:43;;;;;;;3.45;1.00;;;;;;;4.95;95.34;99031.19;4928604;29;20763;-78
2023/01/15 07:19:10;;;;;;;1.48;0.80;;;;;;;4.93;95.42;99029.50;4927049;28;20467;-80
2023/01/15 07:21:36;;;;;;;2.92;1.58;;;;;;;4.91;95.38;99034.66;4945788;28;20039;-79
2023/01/15 07:24:04;;;;;;;4.30;1.48;;;;;;;4.92;95.32;99032.97;4926940;28;20482;-78
2023/01/15 07:26:33;;;;;;;2.38;0.90;;;;;;;4.95;94.46;99035.50;4928137;29;20039;-79
2023/01/15 07:29:01;;;;;;;3.15;0.70;;;;;;;4.92;94.50;99040.72;4929554;28;20505;-79
2023/01/15 07:31:28;;;;;;;7.63;1.50;;;;;;;4.84;94.97;99040.81;4930871;29;20043;-76
2023/01/15 07:33:56;;;;;;;7.20;1.08;;;;;;;4.89;94.36;99049.41;4930805;28;20047;-81
2023/01/15 07:36:24;;;;;;;6.53;0.93;;;;;;;4.84;95.07;99039.94;4947678;28;20141;-77
2023/01/15 07:38:50;;;;;;;8.48;1.00;;;;;;;4.84;94.90;99037.34;4912816;28;20398;-79
2023/01/15 07:49:48;;;;;;;;;;;;;;;4.86;94.84;99036.47;4932848;28;20404;-79
2023/01/15 07:52:21;;;;;;;2.13;1.10;;;;;;;4.82;94.96;99039.97;4946555;28;19923;-78
2023/01/15 07:54:50;;;;;;;4.05;1.35;;;;;;;4.77;95.75;99045.22;4931299;29;20063;-78
2023/01/15 07:57:20;;;;;;;2.80;1.20;;;;;;;4.80;95.38;99049.50;4917528;28;20043;-77
2023/01/15 07:59:46;;;;;;;3.30;0.68;;;;;;;4.88;94.30;99045.09;4938411;28;20126;-76
2023/01/15 08:02:13;;;;;;;4.20;1.00;;;;;;;4.91;94.16;99049.38;4945919;28;20129;-77
2023/01/15 08:04:40;;;;;;;3.15;1.33;;;;;;;4.89;94.23;99067.56;4931781;29;20070;-76
2023/01/15 08:07:09;;;;;;;5.03;1.40;;;;;;;5.07;92.29;99057.84;4946897;28;20051;-76
2023/01/15 08:09:36;;;;;;;4.35;1.20;;;;;;;5.04;92.33;99053.53;4929739;29;20975;-79
2023/01/15 08:17:39;;;;;;;4.88;3.65;;;;;;;5.12;91.66;99045.66;4929881;29;20066;-78
2023/01/15 08:20:11;;;;;;;6.50;1.65;;;;;;;5.14;91.76;99033.53;4943841;28;20522;-77
2023/01/15 08:22:38;;;;;;;3.22;1.15;;;;;;;5.16;91.37;99039.56;4926050;29;20473;-77
2023/01/15 08:25:07;;;;;;;6.70;1.60;;;;;;;5.08;92.13;99046.59;4926879;29;20035;-79
2023/01/15 08:27:34;;;;;;;7.28;1.45;;;;;;;5.07;92.08;99037.06;4926865;29;20040;-79
2023/01/15 08:30:00;;;;;;;3.45;1.20;;;;;;;5.07;91.99;99039.69;4932378;28;20390;-76
2023/01/15 08:32:27;;;;;;;4.72;1.50;;;;;;;5.04;92.41;99045.75;4947795;28;20122;-77
2023/01/15 08:34:53;;;;;;;8.02;1.50;;;;;;;5.00;92.58;99046.69;4935697;29;20050;-75
2023/01/15 08:37:20;;;;;;;5.28;2.92;;;;;;;5.11;91.77;99050.00;4916579;28;20043;-77
2023/01/15 08:39:46;;;;;;;3.22;0.85;;;;;;;5.16;91.21;99057.72;4946412;28;20050;-77
2023/01/15 08:42:13;;;;;;;6.72;1.27;;;;;;;5.14;91.92;99051.69;4927989;28;20039;-78
2023/01/15 08:44:39;;;;;;;8.13;3.15;;;;;;;5.18;91.42;99055.97;4947317;28;20043;-77
2023/01/15 08:47:06;;;;;;;2.78;0.93;;;;;;;5.13;91.49;99056.00;4928328;28;20493;-78
2023/01/15 08:49:32;;;;;;;6.28;1.73;;;;;;;5.27;90.89;99070.56;4944180;28;20044;-81
2023/01/15 08:51:59;;;;;;;2.78;1.15;;;;;;;5.23;90.71;99063.72;4945653;28;20046;-79
2023/01/15 08:54:26;;;;;;;8.48;1.63;;;;;;;5.23;90.35;99058.53;4935688;28;20062;-77
2023/01/15 08:56:54;;;;;;;7.38;2.72;;;;;;;5.17;90.79;99058.59;4943359;28;20047;-77
2023/01/15 08:59:20;;;;;;;2.55;0.88;;;;;;;5.12;90.97;99071.59;4929506;28;20042;-79
2023/01/15 09:01:47;;;;;;;3.47;1.60;;;;;;;5.14;89.99;99065.53;4926301;29;20047;-77
2023/01/15 09:04:16;;;;;;;3.58;1.25;;;;;;;5.18;89.85;99068.09;4941686;28;20058;-78
2023/01/15 09:06:44;;;;;;;1.63;1.48;;;;;;;5.19;89.04;99062.00;4927186;29;20101;-77
2023/01/15 09:09:10;;;;;;;6.00;2.13;;;;;;;5.20;88.88;99074.97;4945705;28;20395;-77
2023/01/15 09:11:39;;;;;;;8.98;1.67;;;;;;;5.21;88.55;99061.09;4925622;29;20050;-76
2023/01/15 09:14:07;;;;;;;3.55;1.17;;;;;;;5.25;88.03;99070.59;4926769;28;20118;-79
2023/01/15 09:16:35;;;;;;;7.30;1.00;;;;;;;5.30;87.10;99086.09;4928131;29;20046;-79
2023/01/15 09:19:03;;;;;;;5.38;1.33;;;;;;;5.34;87.26;99071.34;4927873;28;20036;-78
2023/01/15 09:21:33;;;;;;;4.85;1.13;;;;;;;5.44;86.39;99076.38;4927546;29;20478;-78
2023/01/15 09:24:00;;;;;;;4.40;0.82;;;;;;;5.47;86.05;99084.16;4934410;28;20046;-82
2023/01/15 09:26:36;;;;;;;2.10;1.77;;;;;;;5.52;85.74;99078.88;4946931;28;20046;-79
2023/01/15 09:29:04;;;;;;;25.15;3.00;;;;;;;5.57;85.51;99105.63;4936884;28;20043;-77
2023/01/15 09:31:31;;;;;;;3.22;1.45;;;;;;;5.62;85.31;99080.47;4928956;29;20106;-80
2023/01/15 09:34:03;;;;;;;3.38;1.13;;;;;;;5.70;84.21;99084.69;4929875;29;20055;-78
2023/01/15 09:36:32;;;;;;;7.00;2.38;;;;;;;5.80;83.96;99075.88;4924350;29;20055;-76
2023/01/15 09:39:00;;;;;;;3.65;1.20;;;;;;;5.86;83.88;99090.53;4933681;29;20035;-79
2023/01/15 09:45:06;;;;;;;1.73;1.23;;;;;;;5.91;82.68;99083.53;4948341;28;20061;-79
2023/01/15 09:48:03;;;;;;;6.87;1.20;;;;;;;5.87;82.89;99071.47;4914224;29;20085;-80
2023/01/15 09:51:03;;;;;;;6.72;1.35;;;;;;;5.83;82.71;99075.84;4945275;28;20047;-76
2023/01/15 09:53:55;;;;;;;1.63;0.93;;;;;;;5.89;82.46;99070.56;4922787;29;20050;-78
2023/01/15 09:56:29;;;;;;;3.15;0.68;;;;;;;5.92;81.95;99060.13;4927821;29;20046;-76
2023/01/15 09:59:00;;;;;;;3.83;1.80;;;;;;;6.03;81.41;99069.50;4909054;29;20066;-77
2023/01/15 10:01:31;;;;;;;2.42;1.17;;;;;;;6.12;80.58;99065.00;4909964;29;20040;-78
2023/01/15 10:04:36;;;;;;;8.48;1.17;;;;;;;6.19;79.16;99065.78;4923933;29;20059;-80
2023/01/15 10:07:19;;;;;;;;;;;;;;;6.27;78.55;99057.84;4918328;29;20108;-77
2023/01/15 10:09:58;;;;;;;1.73;0.60;;;;;;;6.40;76.78;99072.38;4915332;29;19930;-79
2023/01/15 10:12:38;;;;;;;2.90;0.88;;;;;;;6.57;76.35;99073.78;4921252;29;20043;-78
2023/01/15 10:15:13;;;;;;;2.53;1.40;;;;;;;6.55;75.33;99072.97;4926291;29;20055;-81
2023/01/15 10:17:46;;;;;;;4.22;0.60;;;;;;;6.53;74.16;99073.00;4933154;29;20058;-80
2023/01/15 10:20:49;;;;;;;6.57;1.40;;;;;;;6.42;74.54;99080.97;4949742;28;20044;-77
2023/01/15 10:24:01;;;;;;;3.47;1.02;;;;;;;6.24;74.12;99070.91;4913596;29;20048;-79
2023/01/15 10:26:39;;;;;;;3.33;1.02;;;;;;;6.17;73.91;99100.47;4903420;28;20054;-80
2023/01/15 10:29:37;;;;;;;7.35;1.27;;;;;;;6.04;75.17;99089.41;4923841;29;20055;-77
2023/01/15 10:32:13;;;;;;;1.95;0.70;;;;;;;5.96;74.59;99084.31;4918478;29;20059;-77
2023/01/15 10:35:27;;;;;;;3.45;0.80;;;;;;;5.93;75.49;99094.72;4924880;29;20039;-80
2023/01/15 10:38:07;;;;;;;2.95;1.00;;;;;;;5.84;76.64;99098.34;4929173;29;20043;-76
2023/01/15 10:41:14;;;;;;;0.82;0.65;;;;;;;5.78;76.99;99094.06;4945241;28;20077;-77
2023/01/15 10:43:54;;;;;;;2.92;0.93;;;;;;;5.83;76.63;99082.75;4931730;29;20055;-76
2023/01/15 10:46:32;;;;;;;3.42;0.93;;;;;;;5.91;76.48;99083.53;4947301;28;20040;-77
2023/01/15 10:49:16;;;;;;;2.22;1.10;;;;;;;5.94;77.15;99083.47;4922288;29;21276;-78
2023/01/15 10:51:46;;;;;;;;;;;;;;;5.93;77.97;99084.34;4921083;29;20055;-78
2023/01/15 10:54:40;;;;;;;3.63;1.13;;;;;;;5.99;78.56;99083.44;4926962;29;20017;-77
2023/01/15 10:57:18;;;;;;;3.05;0.93;;;;;;;6.03;78.57;99075.56;4938127;28;20047;-76
2023/01/15 10:59:52;;;;;;;1.33;0.60;;;;;;;6.11;78.57;99078.91;4907732;29;20052;-76
2023/01/15 11:02:30;;;;;;;3.03;0.77;;;;;;;6.25;78.62;99077.81;4935674;28;20048;-79
2023/01/15 11:04:57;;;;;;;2.70;0.50;;;;;;;6.28;77.82;99081.22;4941450;28;20083;-76
2023/01/15 11:07:36;;;;;;;4.68;0.98;;;;;;;6.23;77.54;99061.38;4925330;29;20083;-78
2023/01/15 11:10:08;;;;;;;3.42;0.70;;;;;;;6.13;77.59;99084.06;4924234;29;20051;-77
2023/01/15 11:21:15;;;;;;;2.20;0.60;;;;;;;6.21;77.34;99073.56;4939137;28;20542;-78
2023/01/15 11:23:43;;;;;;;1.95;0.52;;;;;;;6.22;76.95;99057.94;4923600;29;20118;-78
2023/01/15 11:26:10;;;;;;;1.67;0.60;;;;;;;6.16;76.65;99071.03;4924371;29;20762;-79
2023/01/15 11:28:43;;;;;;;3.22;0.77;;;;;;;6.19;75.63;99063.19;4940820;28;20040;-80
2023/01/15 11:31:12;;;;;;;1.27;0.80;;;;;;;6.34;74.88;99063.81;4924844;29;20043;-80
2023/01/15 11:33:39;;;;;;;6.88;0.80;;;;;;;6.53;74.02;99078.22;4906782;29;20040;-81
2023/01/15 11:36:19;;;;;;;2.80;1.15;;;;;;;6.63;73.85;99068.47;4925233;29;20127;-77
2023/01/15 11:38:49;;;;;;;2.65;1.63;;;;;;;6.64;71.60;99072.81;4934267;28;20054;-80
2023/01/15 11:52:56;;;;;;;1.30;0.38;;;;;;;6.68;68.80;99060.59;4885609;29;20176;-76
2023/01/15 11:55:26;;;;;;;0.70;0.70;;;;;;;6.69;68.49;99051.91;4943435;28;20118;-76
2023/01/15 11:57:55;;;;;;;0.40;0.40;;;;;;;6.71;68.98;99084.78;4926758;29;20043;-77
2023/01/15 12:00:33;;;;;;;5.35;0.85;;;;;;;6.79;67.29;99051.72;4927264;28;20055;-77
2023/01/15 12:03:06;;;;;;;1.17;0.55;;;;;;;6.72;67.39;99089.09;4926582;29;21284;-78
2023/01/15 12:05:36;;;;;;;3.40;0.93;;;;;;;6.68;68.49;99082.25;4927625;29;20054;-79
2023/01/15 12:08:17;;;;;;;8.13;1.77;;;;;;;6.77;67.52;99078.63;4924481;28;20050;-77
2023/01/15 12:11:10;;;;;;;0.75;0.50;;;;;;;6.74;66.59;99089.94;4941055;28;20664;-77
2023/01/15 12:14:11;;;;;;;4.93;1.48;;;;;;;6.77;66.27;99095.09;4941712;28;20126;-77
2023/01/15 12:16:58;;;;;;;1.02;0.70;;;;;;;6.74;65.38;99084.75;4920901;29;20394;-76
2023/01/15 12:19:54;;;;;;;2.60;0.88;;;;;;;6.72;64.72;99076.09;4925997;29;20035;-80
2023/01/15 12:23:16;;;;;;;2.47;0.32;;;;;;;6.75;63.81;99078.66;4928825;29;20861;-77
2023/01/15 12:25:54;;;;;;;2.78;0.50;;;;;;;6.83;62.84;99062.03;4932973;29;20032;-80
2023/01/15 12:28:32;;;;;;;1.98;0.43;;;;;;;6.81;62.79;99077.69;4946641;28;20055;-77
2023/01/15 12:31:10;;;;;;;3.55;0.57;;;;;;;6.82;62.89;99082.00;4936779;28;20050;-78
2023/01/15 12:33:47;;;;;;;0.98;0.70;;;;;;;6.79;62.21;99056.91;4929648;29;20045;-77
2023/01/15 12:36:19;;;;;;;1.65;0.65;;;;;;;6.68;63.33;99078.81;4922365;29;20134;-79
2023/01/15 12:38:55;;;;;;;5.10;0.85;;;;;;;6.62;64.08;99069.34;4933637;28;20479;-80
2023/01/15 12:47:13;;;;;;;2.80;0.63;;;;;;;6.48;64.59;99058.34;4939233;28;20043;-79
2023/01/15 12:50:04;;;;;;;4.88;0.80;;;;;;;6.48;65.37;99055.75;4911149;28;20051;-77
2023/01/15 12:52:40;;;;;;;2.00;0.68;;;;;;;6.48;65.75;99051.44;4936843;28;20142;-77
2023/01/15 12:55:16;;;;;;;2.25;0.60;;;;;;;6.48;64.73;99061.84;4911171;28;20058;-77
2023/01/15 12:57:51;;;;;;;0.60;0.60;;;;;;;6.52;64.44;99018.41;4923135;29;20044;-77
2023/01/15 13:00:30;;;;;;;5.75;2.15;;;;;;;6.54;65.13;99051.31;4942057;28;20054;-77
2023/01/15 13:03:16;;;;;;;1.42;0.60;;;;;;;6.54;65.40;99047.84;4926759;29;20486;-76
2023/01/15 13:05:56;;;;;;;2.20;0.50;;;;;;;6.54;65.25;99056.50;4927823;29;20047;-76
2023/01/15 13:08:30;;;;;;;7.82;1.63;;;;;;;6.53;65.58;99053.94;4937639;28;20495;-77
2023/01/15 13:10:57;;;;;;;3.13;0.63;;;;;;;6.50;65.84;99069.59;4913066;28;20878;-78
2023/01/15 13:13:29;;;;;;;3.22;0.80;;;;;;;6.48;66.32;99071.34;4942653;28;20098;-77